旭川 の空港の天気 - METARとTAF

旭川空港 ( RJEC / AKJ ) - 北海道旭川市
飛行場実況気象(Metar)
観測時間05/28 20:00 JST (05/28 11:00 UTC)
風向・風速南西 3m/s
視程10km以上
天気現象
少しの雲 雲底高度 150m
全天の4割程度の雲 雲底高度 610m
全天の8割程度の雲 雲底高度 1370m
気温13℃
湿度82%
気圧1005hPa
METARRJEC 281100Z 23006KT 190V270 9999 FEW005 SCT020 BKN045 13/10 Q1005
過去の天気等 Google飛行場航空写真 Wunderground天気予報

過去48時間のMETAR

飛行場予報(TAF)
発表時間: 5/28 20:10 JST (5/28 11:10 UTC)
予報対象時間: 28日21時 JST ~ 30日3時 JST
風向・風速南西 3m/s
視程10km以上
少しの雲 雲底高度 240m
全天の8割程度の雲 雲底高度 610m
28日22時 JST ~ 29日1時 JST に一時的に
視程4,000m
天気現象しゅう雨 もや
少しの雲 雲底高度 150m
全天の8割程度の雲 雲底高度 240m
29日9時 JST ~ 29日12時 JST に徐々に
風向・風速西南西 7m/s
29日18時 JST ~ 29日21時 JST に徐々に
風向・風速南 5m/s
TAF RJEC 281110Z 2812/2918 22006KT 9999 FEW008 BKN020
TEMPO 2813/2816 4000 SHRA BR FEW005 BKN008
BECMG 2900/2903 25014KT
BECMG 2909/2912 18009KT
日本の空港のMETAR・TAFへのリンク

RJTT 東京国際空港
RJAA 新東京国際空港
RJBB 関西国際空港
RJOO 大阪空港
RJGG 中部国際空港
RJCC 新千歳空港
RJFF 福岡空港
ROAH 那覇空港


RJEC 旭川空港
RJCH 函館空港
RJCK 釧路空港
RJCM 女満別空港
RJCB 帯広空港
RJSA 青森空港
RJSS 仙台空港
RJSK 秋田空港
RJSF 福島空港
RJAH 茨城空港
RJSN 新潟空港
RJNT 富山空港
RJNK 小松飛行場
RJNS 静岡空港
RJOH 美保飛行場
RJOC 出雲空港
RJOB 岡山空港
RJOA 広島空港
RJOI 岩国飛行場
RJOT 高松空港
RJOM 松山空港
RJOK 高知空港
RJFR 北九州空港
RJFT 熊本空港
RJFU 長崎空港
RJFS 佐賀空港
RJFO 大分空港
RJFM 宮崎空港
RJFK 鹿児島空港
ROIG 石垣島空港
RJTY 横田飛行場
ROTM 普天間飛行場
RODN 嘉手納飛行場